Cartouche — 9HB5619 — position and weather

sailwx.info

Track history (hours):
 
Tides and Currents Weather Stations Pressure Air Temp Water Temp Dewpoint Dewpoint Depression Visibility Wind Speed Wind Dir Waves Ship Positions

Cartouche

Last reported at 2017-Dec-22 09:04 UTC. Time now 2018-Jan-22 07:58 UTC.
Position N 14°30' W 061°12'.
Warning: this ship's position is 30 days out of date.

Length 22 m; draft 2.5 m.

Type: Ship. MMSI: 248318000.

Date/timePositionNaut miles runAvg speedWind from/ knotsBaromVisibWave heightAir tempDewpointWater temp
2017-Dec-22 09:04N 14°30' W 061°12'1 8.5
2017-Dec-22 09:00N 14°31' W 061°12'98 9.3
2017-Dec-21 22:29N 16°03' W 061°47'15 9.5
2017-Dec-21 20:54N 16°17' W 061°52'4 9.2
2017-Dec-21 20:31N 16°21' W 061°52'5 9.3
2017-Dec-21 20:00N 16°26' W 061°51'5 9.9
2017-Dec-21 19:31N 16°31' W 061°51'510.1
2017-Dec-21 19:00N 16°36' W 061°50'510.0
2017-Dec-21 18:31N 16°41' W 061°50'510.0
2017-Dec-21 18:01N 16°46' W 061°49'5 9.8
2017-Dec-21 17:31N 16°50' W 061°48'5 9.8
2017-Dec-21 17:01N 16°55' W 061°47'5 9.1
2017-Dec-21 16:30N 16°60' W 061°47'1 2.3
2017-Dec-21 15:58N 17°01' W 061°46'0 0.0
2017-Dec-21 15:28N 17°01' W 061°46'0 0.0
2017-Dec-21 14:58N 17°01' W 061°46'0 0.0
2017-Dec-21 14:29N 17°01' W 061°46'0 0.0
2017-Dec-21 13:58N 17°01' W 061°46'0 0.0
2017-Dec-21 13:28N 17°01' W 061°46'0 0.0
2017-Dec-21 12:58N 17°01' W 061°46'0 0.0
2017-Dec-21 12:28N 17°01' W 061°46'0 0.0
2017-Dec-21 11:59N 17°01' W 061°46'0 0.0
2017-Dec-21 11:29N 17°01' W 061°46'0 0.0
2017-Dec-21 10:59N 17°01' W 061°46'0 0.0
2017-Dec-21 10:28N 17°01' W 061°46'0 0.0
2017-Dec-21 09:57N 17°01' W 061°46'0 0.0
2017-Dec-21 09:30N 17°01' W 061°46'0 0.0
2017-Dec-21 08:59N 17°01' W 061°46'0 0.0
2017-Dec-21 08:29N 17°01' W 061°46'0 0.0
2017-Dec-21 07:59N 17°01' W 061°46'0 0.0
2017-Dec-21 07:27N 17°01' W 061°46'0 0.0
2017-Dec-21 06:58N 17°01' W 061°46'0 0.0
2017-Dec-21 06:28N 17°01' W 061°46'0 0.0
2017-Dec-21 05:58N 17°01' W 061°46'0 0.0
2017-Dec-21 05:28N 17°01' W 061°46'0 0.0
2017-Dec-21 04:58N 17°01' W 061°46'0 0.0
2017-Dec-21 04:28N 17°01' W 061°46'0 0.0
2017-Dec-21 03:58N 17°01' W 061°46'0 0.0
2017-Dec-21 03:28N 17°01' W 061°46'0 0.0
2017-Dec-21 03:00N 17°01' W 061°46'0 0.0
2017-Dec-21 02:28N 17°01' W 061°46'0 0.0
2017-Dec-21 01:58N 17°01' W 061°46'0 0.0
2017-Dec-21 01:29N 17°01' W 061°46'0 0.0
2017-Dec-21 00:59N 17°01' W 061°46'0 0.0
2017-Dec-21 00:28N 17°01' W 061°46'0 0.0
2017-Dec-20 23:58N 17°01' W 061°46'0 0.0
2017-Dec-20 23:28N 17°01' W 061°46'0 0.0
2017-Dec-20 23:00N 17°01' W 061°46'0 0.0
2017-Dec-20 22:28N 17°01' W 061°46'0 0.0
2017-Dec-20 21:58N 17°01' W 061°46'0 0.0
2017-Dec-20 21:28N 17°01' W 061°46'0 0.0
2017-Dec-20 20:58N 17°01' W 061°46'0 0.0
2017-Dec-20 20:28N 17°01' W 061°46'0 0.0
2017-Dec-20 19:58N 17°01' W 061°46'0 0.0
2017-Dec-20 19:29N 17°01' W 061°46'0 0.0
2017-Dec-20 18:59N 17°01' W 061°46'0 0.0
2017-Dec-20 18:29N 17°01' W 061°46'0 0.0
2017-Dec-20 17:59N 17°01' W 061°46'0 0.0
2017-Dec-20 17:30N 17°01' W 061°46'0 0.0
2017-Dec-20 16:57N 17°01' W 061°46'0 0.0
2017-Dec-20 16:30N 17°01' W 061°46'0 0.0
2017-Dec-20 16:00N 17°01' W 061°46'0 0.0
2017-Dec-20 15:30N 17°01' W 061°46'0 0.0
2017-Dec-20 15:00N 17°01' W 061°46'0 0.0
2017-Dec-20 14:30N 17°01' W 061°46'0 0.0
2017-Dec-20 14:00N 17°01' W 061°46'0 0.0
2017-Dec-20 13:30N 17°01' W 061°46'0 0.0
2017-Dec-20 13:00N 17°01' W 061°46'0 0.0
2017-Dec-20 12:30N 17°01' W 061°46'0 0.0
2017-Dec-20 12:00N 17°01' W 061°46'0 0.0
2017-Dec-20 11:30N 17°01' W 061°46'0 0.0
2017-Dec-20 10:57N 17°01' W 061°46'0 0.0
2017-Dec-20 10:30N 17°01' W 061°46'0 0.0
2017-Dec-20 10:00N 17°01' W 061°46'0 0.0
2017-Dec-20 09:30N 17°01' W 061°46'0 0.0
2017-Dec-20 09:00N 17°01' W 061°46'0 0.0
2017-Dec-20 08:30N 17°01' W 061°46'0 0.0
2017-Dec-20 08:00N 17°01' W 061°46'0 0.0
2017-Dec-20 07:30N 17°01' W 061°46'0 0.0
2017-Dec-20 06:59N 17°01' W 061°46'0 0.0
2017-Dec-20 06:28N 17°01' W 061°46'0 0.0
2017-Dec-20 05:58N 17°01' W 061°46'0 0.0
2017-Dec-20 05:28N 17°01' W 061°46'0 0.0
2017-Dec-20 04:58N 17°01' W 061°46'0 0.0
2017-Dec-20 04:29N 17°01' W 061°46'0 0.0
2017-Dec-20 03:59N 17°01' W 061°46'0 0.0
2017-Dec-20 03:26N 17°01' W 061°46'0 0.0
2017-Dec-20 02:58N 17°01' W 061°46'0 0.0
2017-Dec-20 02:28N 17°01' W 061°46'0 0.0
2017-Dec-20 01:58N 17°01' W 061°46'0 0.0
2017-Dec-20 01:28N 17°01' W 061°46'0 0.0
2017-Dec-20 00:58N 17°01' W 061°46'0 0.0
2017-Dec-20 00:28N 17°01' W 061°46'0 0.0
2017-Dec-19 23:58N 17°01' W 061°46'0 0.0
2017-Dec-19 23:28N 17°01' W 061°46'0 0.0
2017-Dec-19 22:58N 17°01' W 061°46'0 0.0
2017-Dec-19 22:28N 17°01' W 061°46'0 0.0
2017-Dec-19 21:58N 17°01' W 061°46'0 0.0
2017-Dec-19 21:28N 17°01' W 061°46'0 0.0
2017-Dec-19 20:59N 17°01' W 061°46'0 0.0
2017-Dec-19 20:29N 17°01' W 061°46'0 0.0
2017-Dec-19 19:59N 17°01' W 061°46'0 0.0
2017-Dec-19 19:28N 17°01' W 061°46'0 0.0
2017-Dec-19 18:58N 17°01' W 061°46'0 0.0
2017-Dec-19 18:28N 17°01' W 061°46'0 0.0
2017-Dec-19 17:58N 17°01' W 061°46'0 0.0
2017-Dec-19 17:28N 17°01' W 061°46'0 0.0
2017-Dec-19 16:59N 17°01' W 061°46'0 0.0
2017-Dec-19 16:30N 17°01' W 061°46'0 0.0
2017-Dec-19 16:00N 17°01' W 061°46'0 0.0
2017-Dec-19 15:30N 17°01' W 061°46'0 0.0
2017-Dec-19 14:58N 17°01' W 061°46'0 0.0
2017-Dec-19 14:28N 17°01' W 061°46'0 0.0
2017-Dec-19 13:59N 17°01' W 061°46'0 0.0
2017-Dec-19 13:29N 17°01' W 061°46'0 0.0
2017-Dec-19 13:00N 17°01' W 061°46'0 0.0
2017-Dec-19 12:30N 17°01' W 061°46'0 0.0
2017-Dec-19 12:00N 17°01' W 061°46'0 0.0
2017-Dec-19 11:30N 17°01' W 061°46'0 0.0
2017-Dec-19 10:59N 17°01' W 061°46'0 0.0
2017-Dec-19 10:28N 17°01' W 061°46'0 0.0
2017-Dec-19 09:58N 17°01' W 061°46'0 0.0
2017-Dec-19 09:28N 17°01' W 061°46'0 0.0
2017-Dec-19 08:58N 17°01' W 061°46'0 0.0
2017-Dec-19 08:30N 17°01' W 061°46'0 0.0
2017-Dec-19 07:58N 17°01' W 061°46'0 0.0
2017-Dec-19 07:28N 17°01' W 061°46'0 0.0
2017-Dec-19 06:59N 17°01' W 061°46'0 0.0
2017-Dec-19 06:30N 17°01' W 061°46'0 0.0
2017-Dec-19 05:59N 17°01' W 061°46'0 0.0
2017-Dec-19 05:28N 17°01' W 061°46'0 0.0
2017-Dec-19 05:00N 17°01' W 061°46'0 0.0
2017-Dec-19 04:30N 17°01' W 061°46'0 0.0
2017-Dec-19 04:00N 17°01' W 061°46'0 0.0
2017-Dec-19 03:30N 17°01' W 061°46'0 0.0
2017-Dec-19 03:00N 17°01' W 061°46'0 0.0
2017-Dec-19 02:30N 17°01' W 061°46'0 0.0
2017-Dec-19 01:54N 17°01' W 061°46'0 0.0
2017-Dec-19 01:30N 17°01' W 061°46'0 0.0
2017-Dec-19 00:54N 17°01' W 061°46'0 0.0
2017-Dec-19 00:29N 17°01' W 061°46'0 0.0
2017-Dec-18 23:58N 17°01' W 061°46'0 0.0
2017-Dec-18 23:29N 17°01' W 061°46'0 0.0
2017-Dec-18 23:00N 17°01' W 061°46'0 0.0
2017-Dec-18 22:28N 17°01' W 061°46'0 0.0
2017-Dec-18 21:59N 17°01' W 061°46'0 0.0
2017-Dec-18 21:28N 17°01' W 061°46'0 0.0
2017-Dec-18 20:58N 17°01' W 061°46'0 0.0
2017-Dec-18 20:30N 17°01' W 061°46'0 0.0
2017-Dec-18 19:59N 17°01' W 061°46'0 0.0
2017-Dec-18 19:28N 17°01' W 061°46'0 0.0
2017-Dec-18 18:58N 17°01' W 061°46'0 0.0
2017-Dec-18 18:28N 17°01' W 061°46'0 0.0
2017-Dec-18 17:59N 17°01' W 061°46'0 0.0
2017-Dec-18 17:28N 17°01' W 061°46'0 0.0
2017-Dec-18 16:58N 17°01' W 061°46'0 0.0
2017-Dec-18 16:29N 17°01' W 061°46'0 0.0
2017-Dec-18 15:59N 17°01' W 061°46'0 0.0
2017-Dec-18 15:29N 17°01' W 061°46'0 0.0
2017-Dec-18 14:59N 17°01' W 061°46'0 0.0
2017-Dec-18 14:27N 17°01' W 061°46'0 0.0
2017-Dec-18 13:58N 17°01' W 061°46'0 0.0
2017-Dec-18 13:30N 17°01' W 061°46'0 0.0
2017-Dec-18 13:00N 17°01' W 061°46'0 0.0
2017-Dec-18 12:29N 17°01' W 061°46'0 0.0
2017-Dec-18 11:59N 17°01' W 061°46'0 0.0
2017-Dec-18 11:29N 17°01' W 061°46'0 0.0
2017-Dec-18 10:59N 17°01' W 061°46'0 0.0
2017-Dec-18 10:29N 17°01' W 061°46'0 0.0
2017-Dec-18 09:54N 17°01' W 061°46'0 0.0
2017-Dec-18 09:30N 17°01' W 061°46'0 0.0
2017-Dec-18 09:00N 17°01' W 061°46'0 0.0
2017-Dec-18 08:29N 17°01' W 061°46'0 0.0
2017-Dec-18 07:59N 17°01' W 061°46'0 0.0
2017-Dec-18 07:29N 17°01' W 061°46'0 0.0
2017-Dec-18 06:58N 17°01' W 061°46'0 0.0
2017-Dec-18 06:30N 17°01' W 061°46'0 0.0
2017-Dec-18 05:59N 17°01' W 061°46'0 0.0
2017-Dec-18 05:27N 17°01' W 061°46'0 0.0
2017-Dec-18 04:59N 17°01' W 061°46'0 0.0
2017-Dec-18 04:28N 17°01' W 061°46'0 0.0
2017-Dec-18 03:53N 17°01' W 061°46'0 0.0
2017-Dec-18 03:29N 17°01' W 061°46'0 0.0
2017-Dec-18 03:00N 17°01' W 061°46'0 0.0
2017-Dec-18 02:28N 17°01' W 061°46'0 0.0
2017-Dec-18 01:58N 17°01' W 061°46'0 0.0
2017-Dec-18 01:29N 17°01' W 061°46'0 0.0
2017-Dec-18 00:59N 17°01' W 061°46'0 0.0
2017-Dec-18 00:28N 17°01' W 061°46'0 0.0
2017-Dec-17 23:59N 17°01' W 061°46'0 0.0
2017-Dec-17 23:29N 17°01' W 061°46'0 0.0
2017-Dec-17 22:58N 17°01' W 061°46'0 0.0
2017-Dec-17 22:28N 17°01' W 061°46'0 0.0
2017-Dec-17 21:58N 17°01' W 061°46'0 0.0
2017-Dec-17 21:27N 17°01' W 061°46'0 0.0
2017-Dec-17 20:57N 17°01' W 061°46'0 0.0
2017-Dec-17 20:26N 17°01' W 061°46'0 0.0
2017-Dec-17 19:59N 17°01' W 061°46'0 0.0
2017-Dec-17 19:29N 17°01' W 061°46'0 0.0
2017-Dec-17 18:59N 17°01' W 061°46'0 0.2
2017-Dec-17 18:30N 17°01' W 061°46'3 5.2
2017-Dec-17 18:00N 17°00' W 061°44'5 9.5
2017-Dec-17 17:30N 17°04' W 061°40'1 2.0
2017-Dec-17 16:59N 17°05' W 061°40'0 0.0
2017-Dec-17 16:29N 17°05' W 061°40'0 0.0
2017-Dec-17 15:59N 17°05' W 061°40'0 0.0
2017-Dec-17 15:29N 17°05' W 061°40'0 0.0
2017-Dec-17 14:59N 17°05' W 061°40'0 0.0
2017-Dec-17 14:29N 17°05' W 061°40'0 0.0
2017-Dec-17 13:59N 17°05' W 061°40'0 0.0
2017-Dec-17 13:29N 17°05' W 061°40'0 0.0
2017-Dec-17 12:59N 17°05' W 061°40'0 0.0
2017-Dec-17 12:29N 17°05' W 061°40'0 0.0
2017-Dec-17 11:59N 17°05' W 061°40'0 0.0
2017-Dec-17 11:29N 17°05' W 061°40'0 0.0
2017-Dec-17 10:59N 17°05' W 061°40'0 0.0
2017-Dec-17 10:29N 17°05' W 061°40'0 0.0
2017-Dec-17 09:57N 17°05' W 061°40'0 0.0
2017-Dec-17 09:28N 17°05' W 061°40'0 0.0
2017-Dec-17 08:58N 17°05' W 061°40'0 0.0
2017-Dec-17 08:30N 17°05' W 061°40'0 0.0
2017-Dec-17 07:59N 17°05' W 061°40'0 0.0
2017-Dec-17 07:28N 17°05' W 061°40'0 0.0
2017-Dec-17 06:58N 17°05' W 061°40'0 0.0
2017-Dec-17 06:28N 17°05' W 061°40'0 0.0
2017-Dec-17 05:57N 17°05' W 061°40'0 0.0
2017-Dec-17 05:30N 17°05' W 061°40'0 0.0
2017-Dec-17 04:58N 17°05' W 061°40'0 0.0
2017-Dec-17 04:28N 17°05' W 061°40'0 0.0
2017-Dec-17 03:58N 17°05' W 061°40'0 0.0
2017-Dec-17 03:28N 17°05' W 061°40'0 0.0
2017-Dec-17 02:58N 17°05' W 061°40'0 0.0
2017-Dec-17 02:26N 17°05' W 061°40'0 0.0
2017-Dec-17 01:59N 17°05' W 061°40'0 0.0
2017-Dec-17 01:29N 17°05' W 061°40'0 0.0
2017-Dec-17 00:59N 17°05' W 061°40'0 0.0
2017-Dec-17 00:29N 17°05' W 061°40'0 0.0
2017-Dec-16 23:59N 17°05' W 061°40'0 0.0
2017-Dec-16 23:26N 17°05' W 061°40'0 0.0
2017-Dec-16 22:59N 17°05' W 061°40'0 0.0
2017-Dec-16 22:29N 17°05' W 061°40'0 0.0
2017-Dec-16 21:59N 17°05' W 061°40'0 0.0
2017-Dec-16 21:28N 17°05' W 061°40'0 0.0
2017-Dec-16 20:59N 17°05' W 061°40'0 0.0
2017-Dec-16 20:29N 17°05' W 061°40'0 0.0
2017-Dec-16 20:00N 17°05' W 061°40'0 0.0
2017-Dec-16 19:30N 17°05' W 061°40'0 0.0
2017-Dec-16 19:00N 17°05' W 061°40'0 0.0
2017-Dec-16 18:29N 17°05' W 061°40'0 0.0
2017-Dec-16 17:59N 17°05' W 061°40'0 0.0
2017-Dec-16 17:29N 17°05' W 061°40'0 0.0
2017-Dec-16 16:55N 17°05' W 061°40'0 0.0
2017-Dec-16 16:30N 17°05' W 061°40'0 0.0
2017-Dec-16 15:59N 17°05' W 061°40'0 0.0
2017-Dec-16 15:30N 17°05' W 061°40'0 0.0
2017-Dec-16 14:59N 17°05' W 061°40'0 0.0
2017-Dec-16 14:30N 17°05' W 061°40'0 0.0
2017-Dec-16 14:00N 17°05' W 061°40'0 0.0
2017-Dec-16 13:30N 17°05' W 061°40'0 0.0
2017-Dec-16 13:00N 17°05' W 061°40'0 0.0
2017-Dec-16 12:29N 17°05' W 061°40'0 0.0
2017-Dec-16 11:59N 17°05' W 061°40'0 0.0
2017-Dec-16 11:29N 17°05' W 061°40'0 0.0
2017-Dec-16 10:59N 17°05' W 061°40'0 0.0
2017-Dec-16 10:29N 17°05' W 061°40'0 0.0
2017-Dec-16 09:58N 17°05' W 061°40'0 0.0
2017-Dec-16 09:28N 17°05' W 061°40'0 0.0
2017-Dec-16 08:58N 17°05' W 061°40'0 0.0
2017-Dec-16 08:28N 17°05' W 061°40'0 0.0
2017-Dec-16 07:58N 17°05' W 061°40'0 0.0
2017-Dec-16 07:30N 17°05' W 061°40'0 0.0
2017-Dec-16 06:58N 17°05' W 061°40'0 0.0
2017-Dec-16 06:30N 17°05' W 061°40'0 0.0
2017-Dec-16 05:58N 17°05' W 061°40'0 0.0
2017-Dec-16 05:25N 17°05' W 061°40'0 0.0
2017-Dec-16 04:58N 17°05' W 061°40'0 0.0
2017-Dec-16 04:28N 17°05' W 061°40'0 0.0
2017-Dec-16 03:58N 17°05' W 061°40'0 0.0
2017-Dec-16 03:30N 17°05' W 061°40'0 0.0
2017-Dec-16 02:59N 17°05' W 061°40'0 0.0
2017-Dec-16 02:29N 17°05' W 061°40'0 0.0
2017-Dec-16 01:59N 17°05' W 061°40'0 0.0
2017-Dec-16 01:29N 17°05' W 061°40'0 0.0
2017-Dec-16 00:59N 17°05' W 061°40'0 0.0
2017-Dec-16 00:29N 17°05' W 061°40'0 0.0
2017-Dec-15 23:59N 17°05' W 061°40'0 0.0
2017-Dec-15 23:29N 17°05' W 061°40'0 0.0
2017-Dec-15 22:59N 17°05' W 061°40'0 0.0
2017-Dec-15 22:29N 17°05' W 061°40'0 0.0
2017-Dec-15 21:59N 17°05' W 061°40'0 0.0
2017-Dec-15 21:29N 17°05' W 061°40'0 0.0
2017-Dec-15 20:59N 17°05' W 061°40'0 0.0
2017-Dec-15 20:25N 17°05' W 061°40'0 0.0
2017-Dec-15 19:58N 17°05' W 061°40'0 0.0
2017-Dec-15 19:28N 17°05' W 061°40'0 0.0
2017-Dec-15 18:58N 17°05' W 061°40'0 0.0
2017-Dec-15 18:28N 17°05' W 061°40'0 0.0
2017-Dec-15 17:58N 17°05' W 061°40'0 0.0
2017-Dec-15 17:28N 17°05' W 061°40'0 0.0
2017-Dec-15 16:58N 17°05' W 061°40'0 0.0
2017-Dec-15 16:25N 17°05' W 061°40'0 0.0
2017-Dec-15 16:00N 17°05' W 061°40'0 0.0
2017-Dec-15 15:27N 17°05' W 061°40'0 0.0
2017-Dec-15 15:00N 17°05' W 061°40'0 0.0
2017-Dec-15 14:29N 17°05' W 061°40'0 0.0
2017-Dec-15 13:59N 17°05' W 061°40'0 0.0
2017-Dec-15 13:28N 17°05' W 061°40'0 0.0
2017-Dec-15 12:59N 17°05' W 061°40'0 0.0
2017-Dec-15 12:29N 17°05' W 061°40'0 0.0
2017-Dec-15 11:59N 17°05' W 061°40'0 0.0
2017-Dec-15 11:23N 17°05' W 061°40'0 0.0
2017-Dec-15 10:59N 17°05' W 061°40'0 0.0
2017-Dec-15 10:29N 17°05' W 061°40'0 0.0
2017-Dec-15 09:59N 17°05' W 061°40'0 0.0
2017-Dec-15 09:29N 17°05' W 061°40'0 0.0
2017-Dec-15 08:59N 17°05' W 061°40'0 0.0
2017-Dec-15 08:25N 17°05' W 061°40'0 0.0
2017-Dec-15 07:58N 17°05' W 061°40'0 0.0
2017-Dec-15 07:28N 17°05' W 061°40'0 0.0
2017-Dec-15 06:58N 17°05' W 061°40'0 0.0
2017-Dec-15 06:28N 17°05' W 061°40'0 0.0
2017-Dec-15 05:58N 17°05' W 061°40'0 0.0
2017-Dec-15 05:28N 17°05' W 061°40'0 0.0
2017-Dec-15 04:58N 17°05' W 061°40'0 0.0
2017-Dec-15 04:28N 17°05' W 061°40'0 0.0
2017-Dec-15 03:58N 17°05' W 061°40'0 0.0
2017-Dec-15 02:29N 17°05' W 061°40'0 0.0
2017-Dec-15 00:58N 17°05' W 061°40'0 0.0
2017-Dec-15 00:28N 17°05' W 061°40'0 0.0
2017-Dec-14 18:28N 17°05' W 061°40'0 0.0
2017-Dec-14 17:58N 17°05' W 061°40'0 0.0
2017-Dec-14 17:28N 17°05' W 061°40'0 0.0
2017-Dec-14 16:58N 17°05' W 061°40'0 0.0
2017-Dec-14 16:29N 17°05' W 061°40'0 0.0
2017-Dec-14 15:59N 17°05' W 061°40'0 0.5
2017-Dec-14 15:01N 17°04' W 061°41'4 7.3
2017-Dec-14 14:31N 17°01' W 061°42'4 8.8
2017-Dec-14 14:01N 16°60' W 061°47'3 6.2
2017-Dec-14 13:28N 17°00' W 061°50'0 0.0
2017-Dec-14 12:58N 17°00' W 061°50'0 0.0
2017-Dec-14 12:19N 17°00' W 061°50'0 0.0
2017-Dec-14 11:55N 17°00' W 061°50'0 0.0
2017-Dec-14 11:28N 17°00' W 061°50'0 0.0
2017-Dec-14 10:58N 17°00' W 061°50'0 0.0
2017-Dec-14 10:30N 17°00' W 061°50'0 0.0
2017-Dec-14 09:56N 17°00' W 061°50'0 0.0
2017-Dec-14 09:29N 17°00' W 061°50'0 0.0
2017-Dec-14 08:58N 17°00' W 061°50'0 0.0
2017-Dec-14 08:28N 17°00' W 061°50'0 0.0
2017-Dec-14 07:58N 17°00' W 061°50'0 0.0
2017-Dec-14 07:28N 17°00' W 061°50'0 0.0
2017-Dec-14 06:58N 17°00' W 061°50'0 0.0
2017-Dec-14 06:29N 17°00' W 061°50'0 0.0
2017-Dec-14 05:59N 17°00' W 061°50'0 0.0
2017-Dec-14 05:29N 17°00' W 061°50'0 0.0
2017-Dec-14 04:59N 17°00' W 061°50'0 0.0
2017-Dec-14 04:29N 17°00' W 061°50'0 0.0
2017-Dec-14 03:59N 17°00' W 061°50'0 0.0
2017-Dec-14 03:29N 17°00' W 061°50'0 0.0
2017-Dec-14 02:56N 17°00' W 061°50'0 0.0
2017-Dec-14 02:29N 17°00' W 061°50'0 0.0
2017-Dec-14 01:59N 17°00' W 061°50'0 0.0
2017-Dec-14 01:29N 17°00' W 061°50'0 0.0
2017-Dec-14 00:59N 17°00' W 061°50'0 0.0
2017-Dec-14 00:29N 17°00' W 061°50'0 0.0
2017-Dec-13 23:59N 17°00' W 061°50'0 0.0
2017-Dec-13 23:29N 17°00' W 061°50'0 0.0
2017-Dec-13 22:58N 17°00' W 061°50'0 0.0
2017-Dec-13 22:25N 17°00' W 061°50'0 0.0
2017-Dec-13 21:58N 17°00' W 061°50'0 0.0
2017-Dec-13 21:28N 17°00' W 061°50'0 0.0
2017-Dec-13 20:58N 17°00' W 061°50'0 0.0
2017-Dec-13 20:28N 17°00' W 061°50'0 0.0
2017-Dec-13 19:58N 17°00' W 061°50'0 0.0
2017-Dec-13 19:28N 17°00' W 061°50'0 0.0
2017-Dec-13 18:58N 17°01' W 061°50'0 0.0
2017-Dec-13 18:28N 17°00' W 061°50'0 0.0
2017-Dec-13 17:58N 17°01' W 061°50'0 0.1
2017-Dec-13 17:26N 17°00' W 061°50'1 3.4
2017-Dec-13 17:00N 16°59' W 061°50'2 3.6
2017-Dec-13 16:30N 16°59' W 061°48'2 4.6
2017-Dec-13 16:00N 17°01' W 061°47'0 0.1
2017-Dec-13 15:25N 17°01' W 061°47'0 0.0
2017-Dec-13 14:58N 17°01' W 061°47'0 0.0
2017-Dec-13 14:28N 17°01' W 061°47'0 0.0
2017-Dec-13 13:58N 17°01' W 061°47'0 0.0
2017-Dec-13 13:30N 17°01' W 061°47'0 0.0
2017-Dec-13 12:58N 17°01' W 061°47'0 0.0
2017-Dec-13 12:28N 17°01' W 061°47'0 0.0
2017-Dec-13 11:58N 17°01' W 061°47'0 0.0
2017-Dec-13 11:29N 17°01' W 061°47'0 0.0
2017-Dec-13 10:59N 17°01' W 061°47'0 0.0
2017-Dec-13 10:29N 17°01' W 061°47'0 0.0
2017-Dec-13 09:59N 17°01' W 061°47'0 0.0
2017-Dec-13 09:29N 17°01' W 061°47'0 0.0
2017-Dec-13 08:59N 17°01' W 061°47'0 0.0
2017-Dec-13 08:29N 17°01' W 061°47'0 0.0
2017-Dec-13 08:00N 17°01' W 061°47'0 0.0
2017-Dec-13 07:28N 17°01' W 061°47'0 0.0
2017-Dec-13 06:58N 17°01' W 061°47'0 0.0
2017-Dec-13 06:28N 17°01' W 061°47'0 0.0
2017-Dec-13 05:58N 17°01' W 061°47'0 0.0
2017-Dec-13 05:28N 17°01' W 061°47'0 0.0
2017-Dec-13 04:58N 17°01' W 061°47'0 0.0
2017-Dec-13 04:30N 17°01' W 061°47'0 0.0
2017-Dec-13 03:59N 17°01' W 061°47'0 0.0
2017-Dec-13 03:29N 17°01' W 061°47'0 0.0
2017-Dec-13 02:58N 17°01' W 061°47'0 0.0
2017-Dec-13 02:28N 17°01' W 061°47'0 0.0
2017-Dec-13 01:58N 17°01' W 061°47'0 0.0
2017-Dec-13 01:28N 17°01' W 061°47'0 0.0
2017-Dec-13 00:58N 17°01' W 061°47'0 0.0
2017-Dec-13 00:28N 17°01' W 061°47'0 0.0
2017-Dec-12 23:58N 17°01' W 061°47'0 0.0
2017-Dec-12 23:30N 17°01' W 061°47'0 0.0
2017-Dec-12 23:00N 17°01' W 061°47'0 0.0
2017-Dec-12 22:30N 17°01' W 061°47'0 0.0
2017-Dec-12 21:58N 17°01' W 061°47'0 0.0
2017-Dec-12 21:28N 17°01' W 061°47'0 0.0
2017-Dec-12 20:58N 17°01' W 061°47'0 0.0
2017-Dec-12 20:26N 17°01' W 061°47'0 0.0
2017-Dec-12 20:00N 17°01' W 061°47'0 0.1
2017-Dec-12 19:30N 17°01' W 061°47'0 0.2
2017-Dec-12 19:00N 17°01' W 061°47'0 0.2
2017-Dec-12 18:30N 17°01' W 061°47'0 0.9
2017-Dec-12 17:58N 17°01' W 061°46'0 0.0
2017-Dec-12 17:28N 17°01' W 061°46'0 0.0
2017-Dec-12 16:58N 17°01' W 061°46'0 0.0
2017-Dec-12 16:29N 17°01' W 061°46'0 0.0
2017-Dec-12 15:59N 17°01' W 061°46'0 0.0
2017-Dec-12 15:29N 17°01' W 061°46'0 0.0
2017-Dec-12 14:59N 17°01' W 061°46'0 0.0
2017-Dec-12 14:30N 17°01' W 061°46'0 0.0
2017-Dec-12 13:55N 17°01' W 061°46'0 0.0
2017-Dec-12 13:28N 17°01' W 061°46'0 0.0
2017-Dec-12 12:59N 17°01' W 061°46'0 0.0
2017-Dec-12 12:29N 17°01' W 061°46'0 0.0
2017-Dec-12 11:59N 17°01' W 061°46'0 0.0
2017-Dec-12 11:29N 17°01' W 061°46'0 0.0
2017-Dec-12 10:59N 17°01' W 061°46'0 0.0
2017-Dec-12 10:29N 17°01' W 061°46'0 0.0
2017-Dec-12 09:59N 17°01' W 061°46'0 0.0
2017-Dec-12 09:28N 17°01' W 061°46'  
Track history (hours):
 
Tides and Currents Weather Stations Pressure Air Temp Water Temp Dewpoint Dewpoint Depression Visibility Wind Speed Wind Dir Waves Ship Positions

Cartouche

Last reported at 2017-Dec-22 09:04 UTC. Time now 2018-Jan-22 07:58 UTC.
Position N 14°30' W 061°12'.
Warning: this ship's position is 30 days out of date.

Length 22 m; draft 2.5 m.

Type: Ship. MMSI: 248318000.

Date/timePositionNaut miles runAvg speedWind from/ knotsBaromVisibWave heightAir tempDewpointWater temp
2017-Dec-22 09:04N 14°30' W 061°12'1 8.5
2017-Dec-22 09:00N 14°31' W 061°12'98 9.3
2017-Dec-21 22:29N 16°03' W 061°47'15 9.5
2017-Dec-21 20:54N 16°17' W 061°52'4 9.2
2017-Dec-21 20:31N 16°21' W 061°52'5 9.3
2017-Dec-21 20:00N 16°26' W 061°51'5 9.9
2017-Dec-21 19:31N 16°31' W 061°51'510.1
2017-Dec-21 19:00N 16°36' W 061°50'510.0
2017-Dec-21 18:31N 16°41' W 061°50'510.0
2017-Dec-21 18:01N 16°46' W 061°49'5 9.8
2017-Dec-21 17:31N 16°50' W 061°48'5 9.8
2017-Dec-21 17:01N 16°55' W 061°47'5 9.1
2017-Dec-21 16:30N 16°60' W 061°47'1 2.3
2017-Dec-21 15:58N 17°01' W 061°46'0 0.0
2017-Dec-21 15:28N 17°01' W 061°46'0 0.0
2017-Dec-21 14:58N 17°01' W 061°46'0 0.0
2017-Dec-21 14:29N 17°01' W 061°46'0 0.0
2017-Dec-21 13:58N 17°01' W 061°46'0 0.0
2017-Dec-21 13:28N 17°01' W 061°46'0 0.0
2017-Dec-21 12:58N 17°01' W 061°46'0 0.0
2017-Dec-21 12:28N 17°01' W 061°46'0 0.0
2017-Dec-21 11:59N 17°01' W 061°46'0 0.0
2017-Dec-21 11:29N 17°01' W 061°46'0 0.0
2017-Dec-21 10:59N 17°01' W 061°46'0 0.0
2017-Dec-21 10:28N 17°01' W 061°46'0 0.0
2017-Dec-21 09:57N 17°01' W 061°46'0 0.0
2017-Dec-21 09:30N 17°01' W 061°46'0 0.0
2017-Dec-21 08:59N 17°01' W 061°46'0 0.0
2017-Dec-21 08:29N 17°01' W 061°46'0 0.0
2017-Dec-21 07:59N 17°01' W 061°46'0 0.0
2017-Dec-21 07:27N 17°01' W 061°46'0 0.0
2017-Dec-21 06:58N 17°01' W 061°46'0 0.0
2017-Dec-21 06:28N 17°01' W 061°46'0 0.0
2017-Dec-21 05:58N 17°01' W 061°46'0 0.0
2017-Dec-21 05:28N 17°01' W 061°46'0 0.0
2017-Dec-21 04:58N 17°01' W 061°46'0 0.0
2017-Dec-21 04:28N 17°01' W 061°46'0 0.0
2017-Dec-21 03:58N 17°01' W 061°46'0 0.0
2017-Dec-21 03:28N 17°01' W 061°46'0 0.0
2017-Dec-21 03:00N 17°01' W 061°46'0 0.0
2017-Dec-21 02:28N 17°01' W 061°46'0 0.0
2017-Dec-21 01:58N 17°01' W 061°46'0 0.0
2017-Dec-21 01:29N 17°01' W 061°46'0 0.0
2017-Dec-21 00:59N 17°01' W 061°46'0 0.0
2017-Dec-21 00:28N 17°01' W 061°46'0 0.0
2017-Dec-20 23:58N 17°01' W 061°46'0 0.0
2017-Dec-20 23:28N 17°01' W 061°46'0 0.0
2017-Dec-20 23:00N 17°01' W 061°46'0 0.0
2017-Dec-20 22:28N 17°01' W 061°46'0 0.0
2017-Dec-20 21:58N 17°01' W 061°46'0 0.0
2017-Dec-20 21:28N 17°01' W 061°46'0 0.0
2017-Dec-20 20:58N 17°01' W 061°46'0 0.0
2017-Dec-20 20:28N 17°01' W 061°46'0 0.0
2017-Dec-20 19:58N 17°01' W 061°46'0 0.0
2017-Dec-20 19:29N 17°01' W 061°46'0 0.0
2017-Dec-20 18:59N 17°01' W 061°46'0 0.0
2017-Dec-20 18:29N 17°01' W 061°46'0 0.0
2017-Dec-20 17:59N 17°01' W 061°46'0 0.0
2017-Dec-20 17:30N 17°01' W 061°46'0 0.0
2017-Dec-20 16:57N 17°01' W 061°46'0 0.0
2017-Dec-20 16:30N 17°01' W 061°46'0 0.0
2017-Dec-20 16:00N 17°01' W 061°46'0 0.0
2017-Dec-20 15:30N 17°01' W 061°46'0 0.0
2017-Dec-20 15:00N 17°01' W 061°46'0 0.0
2017-Dec-20 14:30N 17°01' W 061°46'0 0.0
2017-Dec-20 14:00N 17°01' W 061°46'0 0.0
2017-Dec-20 13:30N 17°01' W 061°46'0 0.0
2017-Dec-20 13:00N 17°01' W 061°46'0 0.0
2017-Dec-20 12:30N 17°01' W 061°46'0 0.0
2017-Dec-20 12:00N 17°01' W 061°46'0 0.0
2017-Dec-20 11:30N 17°01' W 061°46'0 0.0
2017-Dec-20 10:57N 17°01' W 061°46'0 0.0
2017-Dec-20 10:30N 17°01' W 061°46'0 0.0
2017-Dec-20 10:00N 17°01' W 061°46'0 0.0
2017-Dec-20 09:30N 17°01' W 061°46'0 0.0
2017-Dec-20 09:00N 17°01' W 061°46'0 0.0
2017-Dec-20 08:30N 17°01' W 061°46'0 0.0
2017-Dec-20 08:00N 17°01' W 061°46'0 0.0
2017-Dec-20 07:30N 17°01' W 061°46'0 0.0
2017-Dec-20 06:59N 17°01' W 061°46'0 0.0
2017-Dec-20 06:28N 17°01' W 061°46'0 0.0
2017-Dec-20 05:58N 17°01' W 061°46'0 0.0
2017-Dec-20 05:28N 17°01' W 061°46'0 0.0
2017-Dec-20 04:58N 17°01' W 061°46'0 0.0
2017-Dec-20 04:29N 17°01' W 061°46'0 0.0
2017-Dec-20 03:59N 17°01' W 061°46'0 0.0
2017-Dec-20 03:26N 17°01' W 061°46'0 0.0
2017-Dec-20 02:58N 17°01' W 061°46'0 0.0
2017-Dec-20 02:28N 17°01' W 061°46'0 0.0
2017-Dec-20 01:58N 17°01' W 061°46'0 0.0
2017-Dec-20 01:28N 17°01' W 061°46'0 0.0
2017-Dec-20 00:58N 17°01' W 061°46'0 0.0
2017-Dec-20 00:28N 17°01' W 061°46'0 0.0
2017-Dec-19 23:58N 17°01' W 061°46'0 0.0
2017-Dec-19 23:28N 17°01' W 061°46'0 0.0
2017-Dec-19 22:58N 17°01' W 061°46'0 0.0
2017-Dec-19 22:28N 17°01' W 061°46'0 0.0
2017-Dec-19 21:58N 17°01' W 061°46'0 0.0
2017-Dec-19 21:28N 17°01' W 061°46'0 0.0
2017-Dec-19 20:59N 17°01' W 061°46'0 0.0
2017-Dec-19 20:29N 17°01' W 061°46'0 0.0
2017-Dec-19 19:59N 17°01' W 061°46'0 0.0
2017-Dec-19 19:28N 17°01' W 061°46'0 0.0
2017-Dec-19 18:58N 17°01' W 061°46'0 0.0
2017-Dec-19 18:28N 17°01' W 061°46'0 0.0
2017-Dec-19 17:58N 17°01' W 061°46'0 0.0
2017-Dec-19 17:28N 17°01' W 061°46'0 0.0
2017-Dec-19 16:59N 17°01' W 061°46'0 0.0
2017-Dec-19 16:30N 17°01' W 061°46'0 0.0
2017-Dec-19 16:00N 17°01' W 061°46'0 0.0
2017-Dec-19 15:30N 17°01' W 061°46'0 0.0
2017-Dec-19 14:58N 17°01' W 061°46'0 0.0
2017-Dec-19 14:28N 17°01' W 061°46'0 0.0
2017-Dec-19 13:59N 17°01' W 061°46'0 0.0
2017-Dec-19 13:29N 17°01' W 061°46'0 0.0
2017-Dec-19 13:00N 17°01' W 061°46'0 0.0
2017-Dec-19 12:30N 17°01' W 061°46'0 0.0
2017-Dec-19 12:00N 17°01' W 061°46'0 0.0
2017-Dec-19 11:30N 17°01' W 061°46'0 0.0
2017-Dec-19 10:59N 17°01' W 061°46'0 0.0
2017-Dec-19 10:28N 17°01' W 061°46'0 0.0
2017-Dec-19 09:58N 17°01' W 061°46'0 0.0
2017-Dec-19 09:28N 17°01' W 061°46'0 0.0
2017-Dec-19 08:58N 17°01' W 061°46'0 0.0
2017-Dec-19 08:30N 17°01' W 061°46'0 0.0
2017-Dec-19 07:58N 17°01' W 061°46'0 0.0
2017-Dec-19 07:28N 17°01' W 061°46'0 0.0
2017-Dec-19 06:59N 17°01' W 061°46'0 0.0
2017-Dec-19 06:30N 17°01' W 061°46'0 0.0
2017-Dec-19 05:59N 17°01' W 061°46'0 0.0
2017-Dec-19 05:28N 17°01' W 061°46'0 0.0
2017-Dec-19 05:00N 17°01' W 061°46'0 0.0
2017-Dec-19 04:30N 17°01' W 061°46'0 0.0
2017-Dec-19 04:00N 17°01' W 061°46'0 0.0
2017-Dec-19 03:30N 17°01' W 061°46'0 0.0
2017-Dec-19 03:00N 17°01' W 061°46'0 0.0
2017-Dec-19 02:30N 17°01' W 061°46'0 0.0
2017-Dec-19 01:54N 17°01' W 061°46'0 0.0
2017-Dec-19 01:30N 17°01' W 061°46'0 0.0
2017-Dec-19 00:54N 17°01' W 061°46'0 0.0
2017-Dec-19 00:29N 17°01' W 061°46'0 0.0
2017-Dec-18 23:58N 17°01' W 061°46'0 0.0
2017-Dec-18 23:29N 17°01' W 061°46'0 0.0
2017-Dec-18 23:00N 17°01' W 061°46'0 0.0
2017-Dec-18 22:28N 17°01' W 061°46'0 0.0
2017-Dec-18 21:59N 17°01' W 061°46'0 0.0
2017-Dec-18 21:28N 17°01' W 061°46'0 0.0
2017-Dec-18 20:58N 17°01' W 061°46'0 0.0
2017-Dec-18 20:30N 17°01' W 061°46'0 0.0
2017-Dec-18 19:59N 17°01' W 061°46'0 0.0
2017-Dec-18 19:28N 17°01' W 061°46'0 0.0
2017-Dec-18 18:58N 17°01' W 061°46'0 0.0
2017-Dec-18 18:28N 17°01' W 061°46'0 0.0
2017-Dec-18 17:59N 17°01' W 061°46'0 0.0
2017-Dec-18 17:28N 17°01' W 061°46'0 0.0
2017-Dec-18 16:58N 17°01' W 061°46'0 0.0
2017-Dec-18 16:29N 17°01' W 061°46'0 0.0
2017-Dec-18 15:59N 17°01' W 061°46'0 0.0
2017-Dec-18 15:29N 17°01' W 061°46'0 0.0
2017-Dec-18 14:59N 17°01' W 061°46'0 0.0
2017-Dec-18 14:27N 17°01' W 061°46'0 0.0
2017-Dec-18 13:58N 17°01' W 061°46'0 0.0
2017-Dec-18 13:30N 17°01' W 061°46'0 0.0
2017-Dec-18 13:00N 17°01' W 061°46'0 0.0
2017-Dec-18 12:29N 17°01' W 061°46'0 0.0
2017-Dec-18 11:59N 17°01' W 061°46'0 0.0
2017-Dec-18 11:29N 17°01' W 061°46'0 0.0
2017-Dec-18 10:59N 17°01' W 061°46'0 0.0
2017-Dec-18 10:29N 17°01' W 061°46'0 0.0
2017-Dec-18 09:54N 17°01' W 061°46'0 0.0
2017-Dec-18 09:30N 17°01' W 061°46'0 0.0
2017-Dec-18 09:00N 17°01' W 061°46'0 0.0
2017-Dec-18 08:29N 17°01' W 061°46'0 0.0
2017-Dec-18 07:59N 17°01' W 061°46'0 0.0
2017-Dec-18 07:29N 17°01' W 061°46'0 0.0
2017-Dec-18 06:58N 17°01' W 061°46'0 0.0
2017-Dec-18 06:30N 17°01' W 061°46'0 0.0
2017-Dec-18 05:59N 17°01' W 061°46'0 0.0
2017-Dec-18 05:27N 17°01' W 061°46'0 0.0
2017-Dec-18 04:59N 17°01' W 061°46'0 0.0
2017-Dec-18 04:28N 17°01' W 061°46'0 0.0
2017-Dec-18 03:53N 17°01' W 061°46'0 0.0
2017-Dec-18 03:29N 17°01' W 061°46'0 0.0
2017-Dec-18 03:00N 17°01' W 061°46'0 0.0
2017-Dec-18 02:28N 17°01' W 061°46'0 0.0
2017-Dec-18 01:58N 17°01' W 061°46'0 0.0
2017-Dec-18 01:29N 17°01' W 061°46'0 0.0
2017-Dec-18 00:59N 17°01' W 061°46'0 0.0
2017-Dec-18 00:28N 17°01' W 061°46'0 0.0
2017-Dec-17 23:59N 17°01' W 061°46'0 0.0
2017-Dec-17 23:29N 17°01' W 061°46'0 0.0
2017-Dec-17 22:58N 17°01' W 061°46'0 0.0
2017-Dec-17 22:28N 17°01' W 061°46'0 0.0
2017-Dec-17 21:58N 17°01' W 061°46'0 0.0
2017-Dec-17 21:27N 17°01' W 061°46'0 0.0
2017-Dec-17 20:57N 17°01' W 061°46'0 0.0
2017-Dec-17 20:26N 17°01' W 061°46'0 0.0
2017-Dec-17 19:59N 17°01' W 061°46'0 0.0
2017-Dec-17 19:29N 17°01' W 061°46'0 0.0
2017-Dec-17 18:59N 17°01' W 061°46'0 0.2
2017-Dec-17 18:30N 17°01' W 061°46'3 5.2
2017-Dec-17 18:00N 17°00' W 061°44'5 9.5
2017-Dec-17 17:30N 17°04' W 061°40'1 2.0
2017-Dec-17 16:59N 17°05' W 061°40'0 0.0
2017-Dec-17 16:29N 17°05' W 061°40'0 0.0
2017-Dec-17 15:59N 17°05' W 061°40'0 0.0
2017-Dec-17 15:29N 17°05' W 061°40'0 0.0
2017-Dec-17 14:59N 17°05' W 061°40'0 0.0
2017-Dec-17 14:29N 17°05' W 061°40'0 0.0
2017-Dec-17 13:59N 17°05' W 061°40'0 0.0
2017-Dec-17 13:29N 17°05' W 061°40'0 0.0
2017-Dec-17 12:59N 17°05' W 061°40'0 0.0
2017-Dec-17 12:29N 17°05' W 061°40'0 0.0
2017-Dec-17 11:59N 17°05' W 061°40'0 0.0
2017-Dec-17 11:29N 17°05' W 061°40'0 0.0
2017-Dec-17 10:59N 17°05' W 061°40'0 0.0
2017-Dec-17 10:29N 17°05' W 061°40'0 0.0
2017-Dec-17 09:57N 17°05' W 061°40'0 0.0
2017-Dec-17 09:28N 17°05' W 061°40'0 0.0
2017-Dec-17 08:58N 17°05' W 061°40'0 0.0
2017-Dec-17 08:30N 17°05' W 061°40'0 0.0
2017-Dec-17 07:59N 17°05' W 061°40'0 0.0
2017-Dec-17 07:28N 17°05' W 061°40'0 0.0
2017-Dec-17 06:58N 17°05' W 061°40'0 0.0
2017-Dec-17 06:28N 17°05' W 061°40'0 0.0
2017-Dec-17 05:57N 17°05' W 061°40'0 0.0
2017-Dec-17 05:30N 17°05' W 061°40'0 0.0
2017-Dec-17 04:58N 17°05' W 061°40'0 0.0
2017-Dec-17 04:28N 17°05' W 061°40'0 0.0
2017-Dec-17 03:58N 17°05' W 061°40'0 0.0
2017-Dec-17 03:28N 17°05' W 061°40'0 0.0
2017-Dec-17 02:58N 17°05' W 061°40'0 0.0
2017-Dec-17 02:26N 17°05' W 061°40'0 0.0
2017-Dec-17 01:59N 17°05' W 061°40'0 0.0
2017-Dec-17 01:29N 17°05' W 061°40'0 0.0
2017-Dec-17 00:59N 17°05' W 061°40'0 0.0
2017-Dec-17 00:29N 17°05' W 061°40'0 0.0
2017-Dec-16 23:59N 17°05' W 061°40'0 0.0
2017-Dec-16 23:26N 17°05' W 061°40'0 0.0
2017-Dec-16 22:59N 17°05' W 061°40'0 0.0
2017-Dec-16 22:29N 17°05' W 061°40'0 0.0
2017-Dec-16 21:59N 17°05' W 061°40'0 0.0
2017-Dec-16 21:28N 17°05' W 061°40'0 0.0
2017-Dec-16 20:59N 17°05' W 061°40'0 0.0
2017-Dec-16 20:29N 17°05' W 061°40'0 0.0
2017-Dec-16 20:00N 17°05' W 061°40'0 0.0
2017-Dec-16 19:30N 17°05' W 061°40'0 0.0
2017-Dec-16 19:00N 17°05' W 061°40'0 0.0
2017-Dec-16 18:29N 17°05' W 061°40'0 0.0
2017-Dec-16 17:59N 17°05' W 061°40'0 0.0
2017-Dec-16 17:29N 17°05' W 061°40'0 0.0
2017-Dec-16 16:55N 17°05' W 061°40'0 0.0
2017-Dec-16 16:30N 17°05' W 061°40'0 0.0
2017-Dec-16 15:59N 17°05' W 061°40'0 0.0
2017-Dec-16 15:30N 17°05' W 061°40'0 0.0
2017-Dec-16 14:59N 17°05' W 061°40'0 0.0
2017-Dec-16 14:30N 17°05' W 061°40'0 0.0
2017-Dec-16 14:00N 17°05' W 061°40'0 0.0
2017-Dec-16 13:30N 17°05' W 061°40'0 0.0
2017-Dec-16 13:00N 17°05' W 061°40'0 0.0
2017-Dec-16 12:29N 17°05' W 061°40'0 0.0
2017-Dec-16 11:59N 17°05' W 061°40'0 0.0
2017-Dec-16 11:29N 17°05' W 061°40'0 0.0
2017-Dec-16 10:59N 17°05' W 061°40'0 0.0
2017-Dec-16 10:29N 17°05' W 061°40'0 0.0
2017-Dec-16 09:58N 17°05' W 061°40'0 0.0
2017-Dec-16 09:28N 17°05' W 061°40'0 0.0
2017-Dec-16 08:58N 17°05' W 061°40'0 0.0
2017-Dec-16 08:28N 17°05' W 061°40'0 0.0
2017-Dec-16 07:58N 17°05' W 061°40'0 0.0
2017-Dec-16 07:30N 17°05' W 061°40'0 0.0
2017-Dec-16 06:58N 17°05' W 061°40'0 0.0
2017-Dec-16 06:30N 17°05' W 061°40'0 0.0
2017-Dec-16 05:58N 17°05' W 061°40'0 0.0
2017-Dec-16 05:25N 17°05' W 061°40'0 0.0
2017-Dec-16 04:58N 17°05' W 061°40'0 0.0
2017-Dec-16 04:28N 17°05' W 061°40'0 0.0
2017-Dec-16 03:58N 17°05' W 061°40'0 0.0
2017-Dec-16 03:30N 17°05' W 061°40'0 0.0
2017-Dec-16 02:59N 17°05' W 061°40'0 0.0
2017-Dec-16 02:29N 17°05' W 061°40'0 0.0
2017-Dec-16 01:59N 17°05' W 061°40'0 0.0
2017-Dec-16 01:29N 17°05' W 061°40'0 0.0
2017-Dec-16 00:59N 17°05' W 061°40'0 0.0
2017-Dec-16 00:29N 17°05' W 061°40'0 0.0
2017-Dec-15 23:59N 17°05' W 061°40'0 0.0
2017-Dec-15 23:29N 17°05' W 061°40'0 0.0
2017-Dec-15 22:59N 17°05' W 061°40'0 0.0
2017-Dec-15 22:29N 17°05' W 061°40'0 0.0
2017-Dec-15 21:59N 17°05' W 061°40'0 0.0
2017-Dec-15 21:29N 17°05' W 061°40'0 0.0
2017-Dec-15 20:59N 17°05' W 061°40'0 0.0
2017-Dec-15 20:25N 17°05' W 061°40'0 0.0
2017-Dec-15 19:58N 17°05' W 061°40'0 0.0
2017-Dec-15 19:28N 17°05' W 061°40'0 0.0
2017-Dec-15 18:58N 17°05' W 061°40'0 0.0
2017-Dec-15 18:28N 17°05' W 061°40'0 0.0
2017-Dec-15 17:58N 17°05' W 061°40'0 0.0
2017-Dec-15 17:28N 17°05' W 061°40'0 0.0
2017-Dec-15 16:58N 17°05' W 061°40'0 0.0
2017-Dec-15 16:25N 17°05' W 061°40'0 0.0
2017-Dec-15 16:00N 17°05' W 061°40'0 0.0
2017-Dec-15 15:27N 17°05' W 061°40'0 0.0
2017-Dec-15 15:00N 17°05' W 061°40'0 0.0
2017-Dec-15 14:29N 17°05' W 061°40'0 0.0
2017-Dec-15 13:59N 17°05' W 061°40'0 0.0
2017-Dec-15 13:28N 17°05' W 061°40'0 0.0
2017-Dec-15 12:59N 17°05' W 061°40'0 0.0
2017-Dec-15 12:29N 17°05' W 061°40'0 0.0
2017-Dec-15 11:59N 17°05' W 061°40'0 0.0
2017-Dec-15 11:23N 17°05' W 061°40'0 0.0
2017-Dec-15 10:59N 17°05' W 061°40'0 0.0
2017-Dec-15 10:29N 17°05' W 061°40'0 0.0
2017-Dec-15 09:59N 17°05' W 061°40'0 0.0
2017-Dec-15 09:29N 17°05' W 061°40'0 0.0
2017-Dec-15 08:59N 17°05' W 061°40'0 0.0
2017-Dec-15 08:25N 17°05' W 061°40'0 0.0
2017-Dec-15 07:58N 17°05' W 061°40'0 0.0
2017-Dec-15 07:28N 17°05' W 061°40'0 0.0
2017-Dec-15 06:58N 17°05' W 061°40'0 0.0
2017-Dec-15 06:28N 17°05' W 061°40'0 0.0
2017-Dec-15 05:58N 17°05' W 061°40'0 0.0
2017-Dec-15 05:28N 17°05' W 061°40'0 0.0
2017-Dec-15 04:58N 17°05' W 061°40'0 0.0
2017-Dec-15 04:28N 17°05' W 061°40'0 0.0
2017-Dec-15 03:58N 17°05' W 061°40'0 0.0
2017-Dec-15 02:29N 17°05' W 061°40'0 0.0
2017-Dec-15 00:58N 17°05' W 061°40'0 0.0
2017-Dec-15 00:28N 17°05' W 061°40'0 0.0
2017-Dec-14 18:28N 17°05' W 061°40'0 0.0
2017-Dec-14 17:58N 17°05' W 061°40'0 0.0
2017-Dec-14 17:28N 17°05' W 061°40'0 0.0
2017-Dec-14 16:58N 17°05' W 061°40'0 0.0
2017-Dec-14 16:29N 17°05' W 061°40'0 0.0
2017-Dec-14 15:59N 17°05' W 061°40'0 0.5
2017-Dec-14 15:01N 17°04' W 061°41'4 7.3
2017-Dec-14 14:31N 17°01' W 061°42'4 8.8
2017-Dec-14 14:01N 16°60' W 061°47'3 6.2
2017-Dec-14 13:28N 17°00' W 061°50'0 0.0
2017-Dec-14 12:58N 17°00' W 061°50'0 0.0
2017-Dec-14 12:19N 17°00' W 061°50'0 0.0
2017-Dec-14 11:55N 17°00' W 061°50'0 0.0
2017-Dec-14 11:28N 17°00' W 061°50'0 0.0
2017-Dec-14 10:58N 17°00' W 061°50'0 0.0
2017-Dec-14 10:30N 17°00' W 061°50'0 0.0
2017-Dec-14 09:56N 17°00' W 061°50'0 0.0
2017-Dec-14 09:29N 17°00' W 061°50'0 0.0
2017-Dec-14 08:58N 17°00' W 061°50'0 0.0
2017-Dec-14 08:28N 17°00' W 061°50'0 0.0
2017-Dec-14 07:58N 17°00' W 061°50'0 0.0
2017-Dec-14 07:28N 17°00' W 061°50'0 0.0
2017-Dec-14 06:58N 17°00' W 061°50'0 0.0
2017-Dec-14 06:29N 17°00' W 061°50'0 0.0
2017-Dec-14 05:59N 17°00' W 061°50'0 0.0
2017-Dec-14 05:29N 17°00' W 061°50'0 0.0
2017-Dec-14 04:59N 17°00' W 061°50'0 0.0
2017-Dec-14 04:29N 17°00' W 061°50'0 0.0
2017-Dec-14 03:59N 17°00' W 061°50'0 0.0
2017-Dec-14 03:29N 17°00' W 061°50'0 0.0
2017-Dec-14 02:56N 17°00' W 061°50'0 0.0
2017-Dec-14 02:29N 17°00' W 061°50'0 0.0
2017-Dec-14 01:59N 17°00' W 061°50'0 0.0
2017-Dec-14 01:29N 17°00' W 061°50'0 0.0
2017-Dec-14 00:59N 17°00' W 061°50'0 0.0
2017-Dec-14 00:29N 17°00' W 061°50'0 0.0
2017-Dec-13 23:59N 17°00' W 061°50'0 0.0
2017-Dec-13 23:29N 17°00' W 061°50'0 0.0
2017-Dec-13 22:58N 17°00' W 061°50'0 0.0
2017-Dec-13 22:25N 17°00' W 061°50'0 0.0
2017-Dec-13 21:58N 17°00' W 061°50'0 0.0
2017-Dec-13 21:28N 17°00' W 061°50'0 0.0
2017-Dec-13 20:58N 17°00' W 061°50'0 0.0
2017-Dec-13 20:28N 17°00' W 061°50'0 0.0
2017-Dec-13 19:58N 17°00' W 061°50'0 0.0
2017-Dec-13 19:28N 17°00' W 061°50'0 0.0
2017-Dec-13 18:58N 17°01' W 061°50'0 0.0
2017-Dec-13 18:28N 17°00' W 061°50'0 0.0
2017-Dec-13 17:58N 17°01' W 061°50'0 0.1
2017-Dec-13 17:26N 17°00' W 061°50'1 3.4
2017-Dec-13 17:00N 16°59' W 061°50'2 3.6
2017-Dec-13 16:30N 16°59' W 061°48'2 4.6
2017-Dec-13 16:00N 17°01' W 061°47'0 0.1
2017-Dec-13 15:25N 17°01' W 061°47'0 0.0
2017-Dec-13 14:58N 17°01' W 061°47'0 0.0
2017-Dec-13 14:28N 17°01' W 061°47'0 0.0
2017-Dec-13 13:58N 17°01' W 061°47'0 0.0
2017-Dec-13 13:30N 17°01' W 061°47'0 0.0
2017-Dec-13 12:58N 17°01' W 061°47'0 0.0
2017-Dec-13 12:28N 17°01' W 061°47'0 0.0
2017-Dec-13 11:58N 17°01' W 061°47'0 0.0
2017-Dec-13 11:29N 17°01' W 061°47'0 0.0
2017-Dec-13 10:59N 17°01' W 061°47'0 0.0
2017-Dec-13 10:29N 17°01' W 061°47'0 0.0
2017-Dec-13 09:59N 17°01' W 061°47'0 0.0
2017-Dec-13 09:29N 17°01' W 061°47'0 0.0
2017-Dec-13 08:59N 17°01' W 061°47'0 0.0
2017-Dec-13 08:29N 17°01' W 061°47'0 0.0
2017-Dec-13 08:00N 17°01' W 061°47'0 0.0
2017-Dec-13 07:28N 17°01' W 061°47'0 0.0
2017-Dec-13 06:58N 17°01' W 061°47'0 0.0
2017-Dec-13 06:28N 17°01' W 061°47'0 0.0
2017-Dec-13 05:58N 17°01' W 061°47'0 0.0
2017-Dec-13 05:28N 17°01' W 061°47'0 0.0
2017-Dec-13 04:58N 17°01' W 061°47'0 0.0
2017-Dec-13 04:30N 17°01' W 061°47'0 0.0
2017-Dec-13 03:59N 17°01' W 061°47'0 0.0
2017-Dec-13 03:29N 17°01' W 061°47'0 0.0
2017-Dec-13 02:58N 17°01' W 061°47'0 0.0
2017-Dec-13 02:28N 17°01' W 061°47'0 0.0
2017-Dec-13 01:58N 17°01' W 061°47'0 0.0
2017-Dec-13 01:28N 17°01' W 061°47'0 0.0
2017-Dec-13 00:58N 17°01' W 061°47'0 0.0
2017-Dec-13 00:28N 17°01' W 061°47'0 0.0
2017-Dec-12 23:58N 17°01' W 061°47'0 0.0
2017-Dec-12 23:30N 17°01' W 061°47'0 0.0
2017-Dec-12 23:00N 17°01' W 061°47'0 0.0
2017-Dec-12 22:30N 17°01' W 061°47'0 0.0
2017-Dec-12 21:58N 17°01' W 061°47'0 0.0
2017-Dec-12 21:28N 17°01' W 061°47'0 0.0
2017-Dec-12 20:58N 17°01' W 061°47'0 0.0
2017-Dec-12 20:26N 17°01' W 061°47'0 0.0
2017-Dec-12 20:00N 17°01' W 061°47'0 0.1
2017-Dec-12 19:30N 17°01' W 061°47'0 0.2
2017-Dec-12 19:00N 17°01' W 061°47'0 0.2
2017-Dec-12 18:30N 17°01' W 061°47'0 0.9
2017-Dec-12 17:58N 17°01' W 061°46'0 0.0
2017-Dec-12 17:28N 17°01' W 061°46'0 0.0
2017-Dec-12 16:58N 17°01' W 061°46'0 0.0
2017-Dec-12 16:29N 17°01' W 061°46'0 0.0
2017-Dec-12 15:59N 17°01' W 061°46'0 0.0
2017-Dec-12 15:29N 17°01' W 061°46'0 0.0
2017-Dec-12 14:59N 17°01' W 061°46'0 0.0
2017-Dec-12 14:30N 17°01' W 061°46'0 0.0
2017-Dec-12 13:55N 17°01' W 061°46'0 0.0
2017-Dec-12 13:28N 17°01' W 061°46'0 0.0
2017-Dec-12 12:59N 17°01' W 061°46'0 0.0
2017-Dec-12 12:29N 17°01' W 061°46'0 0.0
2017-Dec-12 11:59N 17°01' W 061°46'0 0.0
2017-Dec-12 11:29N 17°01' W 061°46'0 0.0
2017-Dec-12 10:59N 17°01' W 061°46'0 0.0
2017-Dec-12 10:29N 17°01' W 061°46'0 0.0
2017-Dec-12 09:59N 17°01' W 061°46'0 0.0
2017-Dec-12 09:28N 17°01' W 061°46'  

Dump ship's entire track history